createdAt,value
2016-12-28T00:00:14.961Z,79.52
2016-12-28T00:01:29.404Z,79.99
2016-12-28T00:02:43.775Z,79.52
2016-12-28T00:03:58.392Z,79.61
2016-12-28T00:05:12.819Z,79.8
2016-12-28T00:06:28.512Z,79.8
2016-12-28T00:07:43.610Z,80.08
2016-12-28T00:08:58.731Z,79.52
2016-12-28T00:10:12.944Z,79.8
2016-12-28T00:11:27.522Z,79.9
2016-12-28T00:12:43.326Z,79.8
2016-12-28T00:13:58.435Z,79.42
2016-12-28T00:15:13.824Z,79.52
2016-12-28T00:16:28.348Z,79.42
2016-12-28T00:17:43.612Z,79.8
2016-12-28T00:18:58.133Z,79.52
2016-12-28T00:20:13.585Z,79.52
2016-12-28T00:21:28.363Z,79.71
2016-12-28T00:22:43.106Z,79.8
2016-12-28T00:25:28.036Z,79.52
2016-12-28T00:26:42.730Z,79.33
2016-12-28T00:27:57.819Z,79.52
2016-12-28T00:29:13.594Z,79.14
2016-12-28T00:30:29.168Z,78.66
2016-12-28T00:31:43.437Z,78.56
2016-12-28T00:32:58.561Z,78.85
2016-12-28T00:34:14.828Z,78.85
2016-12-28T00:35:30.056Z,78.75
2016-12-28T00:36:44.757Z,78.75
2016-12-28T00:37:59.919Z,78.89
2016-12-28T00:39:14.711Z,78.89
2016-12-28T00:40:29.017Z,78.85
2016-12-28T00:41:43.891Z,78.85
2016-12-28T00:42:58.533Z,78.75
2016-12-28T00:44:13.787Z,78.95
2016-12-28T00:45:29.777Z,78.75
2016-12-28T00:46:44.544Z,78.66
2016-12-28T00:47:59.557Z,78.85
2016-12-28T00:49:14.373Z,78.85
2016-12-28T00:50:29.090Z,78.95
2016-12-28T00:51:43.628Z,78.66
2016-12-28T00:52:57.892Z,78.75
2016-12-28T00:54:12.742Z,78.85
2016-12-28T00:55:27.856Z,79.04
2016-12-28T00:56:42.577Z,78.75
2016-12-28T00:57:57.485Z,78.75
2016-12-28T00:59:11.634Z,78.75
2016-12-28T01:00:26.489Z,78.85
2016-12-28T01:01:42.212Z,78.75
2016-12-28T01:02:56.981Z,78.85
2016-12-28T01:04:12.160Z,78.95
2016-12-28T01:05:26.997Z,79.04
2016-12-28T01:06:41.465Z,78.89
2016-12-28T01:07:56.281Z,78.8
2016-12-28T01:09:10.960Z,78.99
2016-12-28T01:10:25.441Z,79.08
2016-12-28T01:11:40.008Z,78.51
2016-12-28T01:12:54.546Z,78.8
2016-12-28T01:14:08.998Z,78.66
2016-12-28T01:15:23.570Z,79.23
2016-12-28T01:16:38.239Z,79.52
2016-12-28T01:17:55.175Z,79.9
2016-12-28T01:19:09.212Z,79.14
2016-12-28T01:20:24.919Z,79.52
2016-12-28T01:21:39.154Z,79.8
2016-12-28T01:22:53.992Z,79.61
2016-12-28T01:24:08.046Z,79.9
2016-12-28T01:25:22.908Z,79.33
2016-12-28T01:26:38.329Z,79.71
2016-12-28T01:27:53.316Z,79.61
2016-12-28T01:29:07.614Z,79.23
2016-12-28T01:30:21.714Z,79.71
2016-12-28T01:31:35.888Z,79.8
2016-12-28T01:32:50.712Z,79.42
2016-12-28T01:34:05.670Z,79.33
2016-12-28T01:35:20.985Z,79.14
2016-12-28T01:36:35.177Z,79.04
2016-12-28T01:37:49.633Z,79.04
2016-12-28T01:39:04.547Z,78.85
2016-12-28T01:40:19.323Z,78.66
2016-12-28T01:41:34.062Z,78.7
2016-12-28T01:43:03.480Z,78.95
2016-12-28T01:44:17.969Z,78.42
2016-12-28T01:45:32.700Z,78.51
2016-12-28T01:46:47.472Z,78.23
2016-12-28T01:48:01.832Z,78.23
2016-12-28T01:49:16.709Z,78.61
2016-12-28T01:50:31.445Z,78.42
2016-12-28T01:51:45.848Z,78.42
2016-12-28T01:53:00.727Z,78.89
2016-12-28T01:54:15.410Z,79.04
2016-12-28T01:55:30.715Z,79.33
2016-12-28T01:56:45.218Z,79.17
2016-12-28T01:57:59.352Z,79.08
2016-12-28T01:59:14.737Z,79.55
2016-12-28T02:00:29.460Z,79.71
2016-12-28T02:01:43.961Z,79.52
2016-12-28T02:02:58.933Z,79.61
2016-12-28T02:04:13.933Z,79.71
2016-12-28T02:05:28.524Z,79.9
2016-12-28T02:06:42.626Z,80.46
2016-12-28T02:07:56.669Z,79.71
2016-12-28T02:09:10.713Z,79.9
2016-12-28T02:10:25.105Z,79.99
2016-12-28T02:11:39.708Z,80.84
2016-12-28T02:12:54.007Z,80.56
2016-12-28T02:14:08.097Z,79.99
2016-12-28T02:15:22.167Z,80.18
2016-12-28T02:16:36.329Z,80.37
2016-12-28T02:17:51.208Z,80.27
2016-12-28T02:19:05.299Z,79.8
2016-12-28T02:20:19.594Z,79.52
2016-12-28T02:21:33.748Z,79.71
2016-12-28T02:22:49.103Z,80.08
2016-12-28T02:24:04.314Z,79.8
2016-12-28T02:25:18.974Z,79.33
2016-12-28T02:26:33.142Z,79.52
2016-12-28T02:27:47.809Z,79.61
2016-12-28T02:29:02.910Z,79.8
2016-12-28T02:30:17.247Z,79.14
2016-12-28T02:31:31.809Z,79.42
2016-12-28T02:32:46.138Z,79.23
2016-12-28T02:34:00.612Z,79.71
2016-12-28T02:35:17.334Z,79.61
2016-12-28T02:36:31.999Z,79.8
2016-12-28T02:37:46.397Z,79.52
2016-12-28T02:39:00.999Z,79.61
2016-12-28T02:40:15.465Z,79.52
2016-12-28T02:41:29.514Z,79.71
2016-12-28T02:42:43.980Z,79.33
2016-12-28T02:43:58.480Z,79.36
2016-12-28T02:45:13.653Z,79.8
2016-12-28T02:46:27.943Z,79.52
2016-12-28T02:47:42.093Z,79.14
2016-12-28T02:48:56.375Z,79.42
2016-12-28T02:50:10.480Z,79.42
2016-12-28T02:51:24.790Z,79.33
2016-12-28T02:52:39.614Z,79.04
2016-12-28T02:53:54.083Z,79.55
2016-12-28T02:55:08.513Z,79.17
2016-12-28T02:56:22.820Z,78.89
2016-12-28T02:57:36.877Z,79.27
2016-12-28T02:58:51.219Z,79.14
2016-12-28T03:00:05.321Z,79.33
2016-12-28T03:01:20.053Z,79.33
2016-12-28T03:02:35.081Z,79.42
2016-12-28T03:03:49.178Z,79.42
2016-12-28T03:05:03.266Z,78.85
2016-12-28T03:06:17.696Z,79.04
2016-12-28T03:07:32.309Z,79.04
2016-12-28T03:08:46.676Z,79.14
2016-12-28T03:10:01.026Z,79.14
2016-12-28T03:11:15.123Z,78.95
2016-12-28T03:12:29.804Z,78.95
2016-12-28T03:13:44.146Z,79.52
2016-12-28T03:14:58.499Z,79.71
2016-12-28T03:16:13.083Z,79.71
2016-12-28T03:17:27.259Z,79.52
2016-12-28T03:18:41.608Z,79.71
2016-12-28T03:19:56.355Z,79.8
2016-12-28T03:21:10.968Z,79.9
2016-12-28T03:22:25.079Z,79.61
2016-12-28T03:23:53.889Z,79.42
2016-12-28T03:25:09.073Z,79.42
2016-12-28T03:26:23.097Z,79.61
2016-12-28T03:27:38.215Z,79.42
2016-12-28T03:28:52.264Z,79.52
2016-12-28T03:30:06.565Z,79.99
2016-12-28T03:31:21.335Z,79.99
2016-12-28T03:32:35.755Z,79.99
2016-12-28T03:33:50.082Z,79.9
2016-12-28T03:35:04.248Z,79.61
2016-12-28T03:36:18.897Z,79.23
2016-12-28T03:37:33.368Z,79.23
2016-12-28T03:38:47.481Z,79.42
2016-12-28T03:40:02.138Z,79.61
2016-12-28T03:41:16.177Z,79.14
2016-12-28T03:42:30.316Z,79.61
2016-12-28T03:43:44.917Z,79.8
2016-12-28T03:44:59.123Z,79.9
2016-12-28T03:46:13.455Z,79.71
2016-12-28T03:47:27.546Z,79.52
2016-12-28T03:48:41.597Z,79.9
2016-12-28T03:49:56.312Z,79.8
2016-12-28T03:51:10.723Z,79.52
2016-12-28T03:52:27.021Z,79.33
2016-12-28T03:53:41.424Z,79.8
2016-12-28T03:54:55.763Z,80.08
2016-12-28T03:56:10.080Z,79.8
2016-12-28T03:57:24.880Z,80.18
2016-12-28T03:58:39.033Z,79.8
2016-12-28T03:59:53.530Z,79.71
2016-12-28T04:01:07.851Z,79.8
2016-12-28T04:02:22.527Z,79.99
2016-12-28T04:03:37.474Z,79.71
2016-12-28T04:04:51.664Z,79.99
2016-12-28T04:06:06.148Z,79.8
2016-12-28T04:07:20.621Z,79.9
2016-12-28T04:08:35.348Z,79.9
2016-12-28T04:09:50.176Z,79.8
2016-12-28T04:11:19.271Z,79.23
2016-12-28T04:12:33.313Z,79.23
2016-12-28T04:13:48.418Z,78.85
2016-12-28T04:15:02.644Z,78.85
2016-12-28T04:16:17.062Z,78.66
2016-12-28T04:17:46.466Z,78.85
2016-12-28T04:19:00.744Z,78.85
2016-12-28T04:20:15.121Z,79.14
2016-12-28T04:21:29.819Z,78.85
2016-12-28T04:22:44.263Z,78.85
2016-12-28T04:23:58.314Z,78.47
2016-12-28T04:25:12.706Z,78.51
2016-12-28T04:26:27.343Z,78.42
2016-12-28T04:27:41.450Z,78.38
2016-12-28T04:28:55.880Z,78.51
2016-12-28T04:30:09.997Z,78.32
2016-12-28T04:31:25.382Z,78.47
2016-12-28T04:32:40.064Z,78.51
2016-12-28T04:33:54.115Z,78.51
2016-12-28T04:35:08.645Z,78.51
2016-12-28T04:36:22.730Z,78.61
2016-12-28T04:37:36.888Z,78.23
2016-12-28T04:38:51.297Z,77.56
2016-12-28T04:40:05.370Z,77.66
2016-12-28T04:41:19.472Z,77.84
2016-12-28T04:42:33.856Z,77.56
2016-12-28T04:43:48.915Z,77.75
2016-12-28T04:45:03.655Z,77.37
2016-12-28T04:46:19.487Z,77.09
2016-12-28T04:47:33.712Z,76.8
2016-12-28T04:48:48.196Z,77.28
2016-12-28T04:50:03.003Z,77.18
2016-12-28T04:51:17.094Z,76.9
2016-12-28T04:52:31.847Z,77.37
2016-12-28T04:53:46.127Z,77.37
2016-12-28T04:55:00.851Z,77.66
2016-12-28T04:56:15.396Z,77.56
2016-12-28T04:57:29.566Z,77.37
2016-12-28T04:58:44.005Z,77.09
2016-12-28T04:59:59.137Z,77.18
2016-12-28T05:01:14.058Z,77.28
2016-12-28T05:02:28.855Z,77.18
2016-12-28T05:03:43.168Z,76.9
2016-12-28T05:04:58.482Z,76.61
2016-12-28T05:06:12.749Z,76.61
2016-12-28T05:07:27.000Z,76.42
2016-12-28T05:08:41.413Z,76.52
2016-12-28T05:09:58.264Z,76.52
2016-12-28T05:11:12.685Z,76.42
2016-12-28T05:12:26.907Z,76.61
2016-12-28T05:13:41.063Z,76.42
2016-12-28T05:14:55.754Z,76.23
2016-12-28T05:16:10.348Z,76.23
2016-12-28T05:17:24.711Z,76.23
2016-12-28T05:18:39.134Z,76.04
2016-12-28T05:19:53.235Z,75.95
2016-12-28T05:21:07.554Z,75.76
2016-12-28T05:22:21.642Z,75.95
2016-12-28T05:23:37.032Z,76.52
2016-12-28T05:24:51.488Z,76.32
2016-12-28T05:26:06.083Z,76.14
2016-12-28T05:27:20.526Z,76.23
2016-12-28T05:28:34.680Z,75.47
2016-12-28T05:29:48.774Z,75.7
2016-12-28T05:31:03.095Z,75.95
2016-12-28T05:32:17.233Z,76.08
2016-12-28T05:33:31.931Z,76.23
2016-12-28T05:34:46.027Z,76.42
2016-12-28T05:36:00.762Z,76.9
2016-12-28T05:37:15.055Z,76.99
2016-12-28T05:38:29.162Z,76.42
2016-12-28T05:39:43.761Z,76.9
2016-12-28T05:40:57.882Z,76.71
2016-12-28T05:42:12.082Z,77.18
2016-12-28T05:43:26.175Z,77.75
2016-12-28T05:44:41.172Z,77.66
2016-12-28T05:45:56.076Z,77.84
2016-12-28T05:47:10.127Z,78.03
2016-12-28T05:48:24.420Z,77.75
2016-12-28T05:49:39.388Z,77.66
2016-12-28T05:50:54.576Z,78.23
2016-12-28T05:52:09.035Z,77.66
2016-12-28T05:53:23.244Z,77.75
2016-12-28T05:54:37.875Z,77.66
2016-12-28T05:55:53.158Z,77.66
2016-12-28T05:57:07.748Z,77.84
2016-12-28T05:58:22.895Z,77.28
2016-12-28T05:59:37.209Z,77.47
2016-12-28T06:00:51.266Z,77.56
2016-12-28T06:02:05.870Z,77.56
2016-12-28T06:03:20.686Z,77.75
2016-12-28T06:04:35.125Z,77.84
2016-12-28T06:05:49.287Z,77.75
2016-12-28T06:07:03.466Z,77.37
2016-12-28T06:08:17.642Z,77.28
2016-12-28T06:09:32.301Z,77.66
2016-12-28T06:10:46.749Z,77.56
2016-12-28T06:12:00.888Z,77.28
2016-12-28T06:13:15.036Z,77.66
2016-12-28T06:14:29.097Z,77.28
2016-12-28T06:15:43.695Z,77.37
2016-12-28T06:16:58.415Z,77.37
2016-12-28T06:18:12.644Z,77.09
2016-12-28T06:19:27.091Z,76.61
2016-12-28T06:20:41.519Z,76.9
2016-12-28T06:21:55.880Z,76.71
2016-12-28T06:23:10.513Z,77.28
2016-12-28T06:24:24.823Z,77.47
2016-12-28T06:25:41.156Z,77.75
2016-12-28T06:27:01.942Z,77.56
2016-12-28T06:28:20.285Z,78.13
2016-12-28T06:29:38.181Z,78.42
2016-12-28T06:30:56.729Z,77.56
2016-12-28T06:32:15.656Z,78.23
2016-12-28T06:33:35.006Z,78.89
2016-12-28T06:34:50.364Z,78.42
2016-12-28T06:36:04.737Z,78.13
2016-12-28T06:37:19.130Z,78.23
2016-12-28T06:38:33.894Z,78.51
2016-12-28T06:39:48.052Z,78.42
2016-12-28T06:41:02.803Z,78.38
2016-12-28T06:42:17.722Z,78.32
2016-12-28T06:43:32.164Z,78.13
2016-12-28T06:44:47.074Z,77.66
2016-12-28T06:46:01.231Z,77.75
2016-12-28T06:47:16.016Z,78.23
2016-12-28T06:48:30.411Z,77.75
2016-12-28T06:49:44.497Z,77.66
2016-12-28T06:50:58.583Z,77.75
2016-12-28T06:52:12.745Z,77.84
2016-12-28T06:53:27.766Z,77.84
2016-12-28T06:54:42.165Z,77.66
2016-12-28T06:55:56.578Z,78.42
2016-12-28T06:57:10.640Z,78.7
2016-12-28T06:58:24.731Z,78.85
2016-12-28T06:59:39.138Z,78.85
2016-12-28T07:00:53.738Z,78.66
2016-12-28T07:02:07.795Z,78.95
2016-12-28T07:03:22.600Z,78.47
2016-12-28T07:04:37.032Z,78.23
2016-12-28T07:05:51.651Z,78.42
2016-12-28T07:07:05.732Z,78.32
2016-12-28T07:08:20.336Z,78.47
2016-12-28T07:09:34.410Z,78.7
2016-12-28T07:10:48.453Z,78.28
2016-12-28T07:12:03.144Z,78.51
2016-12-28T07:13:18.051Z,78.23
2016-12-28T07:14:32.648Z,78.61
2016-12-28T07:15:46.709Z,78.13
2016-12-28T07:17:01.413Z,78.38
2016-12-28T07:21:13.456Z,78.8
2016-12-28T07:22:28.362Z,78.47
2016-12-28T07:23:42.677Z,78.51
2016-12-28T07:24:56.880Z,78.61
2016-12-28T07:26:10.968Z,78.28
2016-12-28T07:27:39.794Z,77.75
2016-12-28T07:28:54.204Z,77.66
2016-12-28T07:30:09.155Z,77.47
2016-12-28T07:31:23.600Z,76.99
2016-12-28T07:32:38.775Z,77.18
2016-12-28T07:33:52.828Z,77.84
2016-12-28T07:35:07.284Z,77.94
2016-12-28T07:36:21.610Z,77.94
2016-12-28T07:37:35.668Z,78.32
2016-12-28T07:38:49.955Z,78.61
2016-12-28T07:40:04.360Z,78.47
2016-12-28T07:41:19.150Z,78.38
2016-12-28T07:42:33.223Z,78.66
2016-12-28T07:43:47.951Z,78.19
2016-12-28T07:45:02.361Z,78.61
2016-12-28T07:46:18.678Z,78.09
2016-12-28T07:47:33.352Z,78.38
2016-12-28T07:48:47.455Z,78.89
2016-12-28T07:50:01.582Z,78.8
2016-12-28T07:51:16.393Z,78.7
2016-12-28T07:52:30.433Z,78.99
2016-12-28T07:53:44.726Z,79.08
2016-12-28T07:54:58.853Z,78.89
2016-12-28T07:56:13.667Z,78.95
2016-12-28T07:57:28.182Z,78.8
2016-12-28T07:58:42.888Z,78.85
2016-12-28T07:59:57.242Z,78.85
2016-12-28T08:01:11.830Z,78.85
2016-12-28T08:02:26.001Z,79.04
2016-12-28T08:03:40.466Z,78.66
2016-12-28T08:04:55.979Z,78.38
2016-12-28T08:06:10.984Z,78.85
2016-12-28T08:07:25.097Z,78.38
2016-12-28T08:08:39.189Z,78.66
2016-12-28T08:09:53.695Z,78.28
2016-12-28T08:11:07.981Z,78.56
2016-12-28T08:12:22.329Z,78.85
2016-12-28T08:13:36.422Z,78.38
2016-12-28T08:14:50.458Z,78.32
2016-12-28T08:16:19.282Z,78.42
2016-12-28T08:17:33.706Z,78.42
2016-12-28T08:18:48.257Z,78.7
2016-12-28T08:20:02.622Z,78.61
2016-12-28T08:21:17.107Z,78.03
2016-12-28T08:22:31.240Z,78.13
2016-12-28T08:23:45.332Z,77.37
2016-12-28T08:25:00.300Z,77.75
2016-12-28T08:26:14.613Z,77.75
2016-12-28T08:27:28.959Z,77.56
2016-12-28T08:28:43.075Z,77.18
2016-12-28T08:29:57.176Z,77.66
2016-12-28T08:31:11.539Z,76.71
2016-12-28T08:32:26.099Z,75.76
2016-12-28T08:33:40.741Z,74.81
2016-12-28T08:34:55.100Z,74.81
2016-12-28T08:36:09.597Z,74.81
2016-12-28T08:37:23.897Z,74.05
2016-12-28T08:38:37.938Z,73.76
2016-12-28T08:40:07.051Z,74.05
2016-12-28T08:41:21.161Z,73.76
2016-12-28T08:42:35.524Z,73
2016-12-28T08:43:49.556Z,72.91
2016-12-28T08:45:04.001Z,73
2016-12-28T08:46:18.099Z,72.81
2016-12-28T08:47:32.442Z,73.14
2016-12-28T08:48:47.091Z,72.53
2016-12-28T08:50:01.517Z,72.66
2016-12-28T08:51:15.894Z,72.63
2016-12-28T08:52:29.941Z,72.75
2016-12-28T08:53:44.217Z,72.09
2016-12-28T08:54:59.919Z,71.9
2016-12-28T08:56:31.617Z,72.56
2016-12-28T08:57:48.001Z,73.9
2016-12-28T08:59:05.178Z,72.19
2016-12-28T09:00:20.402Z,71.14
2016-12-28T09:01:34.949Z,71.14
2016-12-28T09:02:49.078Z,71.23
2016-12-28T09:04:07.126Z,70.67
2016-12-28T09:05:22.248Z,70.19
2016-12-28T09:06:36.570Z,70.19
2016-12-28T09:07:50.978Z,69.91
2016-12-28T09:09:05.344Z,69.56
2016-12-28T09:10:20.598Z,69.56
2016-12-28T09:11:35.427Z,69.75
2016-12-28T09:15:17.841Z,69.85
2016-12-28T09:16:32.229Z,69.46
2016-12-28T09:17:46.351Z,69.46
2016-12-28T09:19:00.728Z,68.52
2016-12-28T09:20:14.853Z,68.99
2016-12-28T09:21:29.308Z,68.33
2016-12-28T09:22:43.707Z,68.04
2016-12-28T09:23:58.038Z,68.33
2016-12-28T09:25:12.438Z,68.42
2016-12-28T09:26:41.587Z,68.23
2016-12-28T09:27:56.741Z,67.76
2016-12-28T09:29:10.843Z,67.57
2016-12-28T09:30:25.582Z,67.19
2016-12-28T09:31:39.948Z,66.9
2016-12-28T09:32:54.352Z,66.71
2016-12-28T09:34:08.573Z,66.61
2016-12-28T09:35:22.650Z,66.52
2016-12-28T09:36:37.379Z,66.42
2016-12-28T09:37:52.554Z,65.89
2016-12-28T09:39:06.994Z,65.32
2016-12-28T09:40:21.083Z,65.13
2016-12-28T09:41:36.019Z,65.32
2016-12-28T09:42:50.507Z,65.51
2016-12-28T09:44:04.648Z,64.46
2016-12-28T09:45:19.714Z,64.37
2016-12-28T09:46:34.409Z,64.27
2016-12-28T09:47:48.460Z,64.37
2016-12-28T09:49:03.219Z,64.27
2016-12-28T09:50:18.601Z,64.56
2016-12-28T09:51:33.468Z,63.89
2016-12-28T09:52:47.546Z,63.42
2016-12-28T09:54:01.824Z,63.79
2016-12-28T09:55:16.448Z,62.85
2016-12-28T09:56:30.704Z,63.13
2016-12-28T09:57:45.707Z,63.13
2016-12-28T09:59:00.283Z,63.89
2016-12-28T10:00:14.769Z,63.23
2016-12-28T10:01:29.414Z,63.04
2016-12-28T10:02:44.371Z,63.04
2016-12-28T10:03:58.977Z,63.42
2016-12-28T10:05:13.608Z,63.79
2016-12-28T10:06:29.053Z,63.95
2016-12-28T10:07:44.032Z,64.05
2016-12-28T10:08:58.596Z,63.95
2016-12-28T10:10:12.845Z,63.32
2016-12-28T10:11:28.163Z,63.13
2016-12-28T10:12:43.291Z,63.89
2016-12-28T10:13:59.325Z,63.2
2016-12-28T10:15:13.948Z,62.94
2016-12-28T10:16:28.350Z,63.29
2016-12-28T10:17:43.110Z,63.04
2016-12-28T10:18:58.124Z,63.01
2016-12-28T10:20:13.480Z,63.01
2016-12-28T10:21:28.193Z,63.01
2016-12-28T10:22:45.547Z,62.91
2016-12-28T10:24:17.415Z,62.94
2016-12-28T10:25:35.195Z,62.94
2016-12-28T10:26:50.280Z,62.65
2016-12-28T10:28:05.518Z,62.75
2016-12-28T10:29:20.069Z,62.37
2016-12-28T10:30:35.363Z,62.27
2016-12-28T10:31:51.404Z,62.18
2016-12-28T10:33:06.093Z,61.9
2016-12-28T10:34:20.566Z,61.99
2016-12-28T10:35:35.460Z,61.9
2016-12-28T10:36:49.825Z,62.46
2016-12-28T10:38:04.887Z,62.27
2016-12-28T10:39:20.405Z,61.52
2016-12-28T10:40:34.968Z,61.9
2016-12-28T10:41:49.752Z,62.46
2016-12-28T10:43:04.499Z,62.75
2016-12-28T10:44:33.376Z,62.24
2016-12-28T10:45:48.337Z,62.65
2016-12-28T10:47:02.992Z,62.46
2016-12-28T10:48:17.313Z,61.99
2016-12-28T10:49:31.825Z,61.8
2016-12-28T10:50:46.985Z,62.18
2016-12-28T10:52:02.044Z,61.42
2016-12-28T10:53:16.297Z,60.85
2016-12-28T10:54:31.491Z,60.57
2016-12-28T10:55:47.196Z,60.38
2016-12-28T10:57:02.394Z,60.38
2016-12-28T10:58:16.849Z,59.9
2016-12-28T10:59:31.438Z,59.42
2016-12-28T11:00:45.848Z,59.8
2016-12-28T11:02:01.463Z,60.09
2016-12-28T11:03:15.956Z,60.09
2016-12-28T11:04:30.558Z,60.28
2016-12-28T11:05:44.792Z,60.28
2016-12-28T11:06:59.303Z,59.99
2016-12-28T11:08:14.080Z,60.09
2016-12-28T11:09:28.500Z,60.18
2016-12-28T11:10:42.628Z,60.38
2016-12-28T11:11:57.227Z,59.71
2016-12-28T11:13:12.928Z,59.23
2016-12-28T11:14:27.760Z,58.98
2016-12-28T11:15:43.106Z,59.07
2016-12-28T11:16:58.298Z,59.17
2016-12-28T11:18:14.525Z,58.57
2016-12-28T11:19:29.866Z,58.85
2016-12-28T11:20:44.470Z,58.76
2016-12-28T11:21:59.002Z,58.28
2016-12-28T11:23:14.985Z,58.66
2016-12-28T11:24:30.052Z,58
2016-12-28T11:25:44.827Z,58.37
2016-12-28T11:26:59.631Z,58.57
2016-12-28T11:28:14.672Z,58.76
2016-12-28T11:29:29.330Z,58.37
2016-12-28T11:30:44.343Z,58.03
2016-12-28T11:31:59.081Z,57.55
2016-12-28T11:33:14.658Z,57.55
2016-12-28T11:34:29.321Z,57.74
2016-12-28T11:35:44.024Z,57.17
2016-12-28T11:36:58.438Z,57.17
2016-12-28T11:38:13.165Z,57.26
2016-12-28T11:39:27.991Z,57.36
2016-12-28T11:40:44.858Z,56.98
2016-12-28T11:41:59.933Z,56.98
2016-12-28T11:43:15.548Z,57.14
2016-12-28T11:44:30.497Z,57.14
2016-12-28T11:45:45.637Z,57.24
2016-12-28T11:47:00.554Z,57.62
2016-12-28T11:48:16.010Z,57.81
2016-12-28T11:49:30.469Z,58.09
2016-12-28T11:50:44.795Z,58.09
2016-12-28T11:51:59.839Z,58.09
2016-12-28T11:53:15.126Z,58.37
2016-12-28T11:54:29.640Z,57.71
2016-12-28T11:55:44.262Z,57.33
2016-12-28T11:56:58.727Z,57.43
2016-12-28T11:58:14.427Z,58
2016-12-28T11:59:29.184Z,57.71
2016-12-28T12:00:43.721Z,57.14
2016-12-28T12:01:57.996Z,56.85
2016-12-28T12:03:12.640Z,56.67
2016-12-28T12:04:27.464Z,57.04
2016-12-28T12:05:42.025Z,56.51
2016-12-28T12:06:56.398Z,56.6
2016-12-28T12:08:10.918Z,56.6
2016-12-28T12:09:25.436Z,57.26
2016-12-28T12:10:40.348Z,57.45
2016-12-28T12:11:54.570Z,57.07
2016-12-28T12:13:09.672Z,57.07
2016-12-28T12:14:24.065Z,56.98
2016-12-28T12:15:38.886Z,56.7
2016-12-28T12:16:53.913Z,56.7
2016-12-28T12:18:08.917Z,56.51
2016-12-28T12:19:23.825Z,56.31
2016-12-28T12:20:38.793Z,56.22
2016-12-28T12:21:54.213Z,56.41
2016-12-28T12:23:09.698Z,56.03
2016-12-28T12:24:24.338Z,55.83
2016-12-28T12:25:38.679Z,55.1
2016-12-28T12:26:54.608Z,54.82
2016-12-28T12:28:09.381Z,55.17
2016-12-28T12:29:25.403Z,55.46
2016-12-28T12:30:40.548Z,55.93
2016-12-28T12:31:55.896Z,55.83
2016-12-28T12:33:11.503Z,56.31
2016-12-28T12:34:26.590Z,56.12
2016-12-28T12:35:42.087Z,56.22
2016-12-28T12:36:57.583Z,56.31
2016-12-28T12:38:13.264Z,55.74
2016-12-28T12:39:27.990Z,55.93
2016-12-28T12:40:42.594Z,56.7
2016-12-28T12:41:57.622Z,55.65
2016-12-28T12:43:12.450Z,56.03
2016-12-28T12:44:26.856Z,55.93
2016-12-28T12:45:41.456Z,55.46
2016-12-28T12:46:56.111Z,55.08
2016-12-28T12:48:10.663Z,55.83
2016-12-28T12:49:25.410Z,55.27
2016-12-28T12:50:54.912Z,55.74
2016-12-28T12:52:09.544Z,55.55
2016-12-28T12:53:24.160Z,55.36
2016-12-28T12:54:39.719Z,55.08
2016-12-28T12:55:53.934Z,55.17
2016-12-28T12:57:08.666Z,55.46
2016-12-28T12:58:26.160Z,54.98
2016-12-28T12:59:41.467Z,55.65
2016-12-28T13:00:56.305Z,55.55
2016-12-28T13:02:10.422Z,55.46
2016-12-28T13:03:25.079Z,55.93
2016-12-28T13:04:40.077Z,56.19
2016-12-28T13:05:56.267Z,56.51
2016-12-28T13:07:25.743Z,56.57
2016-12-28T13:08:40.674Z,56.48
2016-12-28T13:09:55.249Z,57.04
2016-12-28T13:11:10.230Z,56.76
2016-12-28T13:12:26.434Z,56.38
2016-12-28T13:13:41.058Z,56.48
2016-12-28T13:14:57.878Z,56.51
2016-12-28T13:16:13.692Z,56.51
2016-12-28T13:19:13.166Z,56.22
2016-12-28T13:20:28.826Z,56.38
2016-12-28T13:21:45.371Z,56.1
2016-12-28T13:23:00.955Z,56.85
2016-12-28T13:24:15.210Z,56.12
2016-12-28T13:25:30.554Z,56.03
2016-12-28T13:28:44.893Z,55.17
2016-12-28T13:29:59.430Z,54.98
2016-12-28T13:31:14.000Z,54.89
2016-12-28T13:32:28.546Z,54.79
2016-12-28T13:33:43.214Z,54.6
2016-12-28T13:34:57.649Z,54.6
2016-12-28T13:36:13.253Z,54.89
2016-12-28T13:37:27.910Z,55.08
2016-12-28T13:38:42.419Z,55.46
2016-12-28T13:39:56.923Z,55.46
2016-12-28T13:41:11.386Z,54.98
2016-12-28T13:42:26.236Z,54.89
2016-12-28T13:43:41.435Z,54.69
2016-12-28T13:44:56.189Z,54.5
2016-12-28T13:46:12.957Z,54.69
2016-12-28T13:47:27.170Z,54.32
2016-12-28T13:48:41.898Z,53.84
2016-12-28T13:49:58.186Z,53.65
2016-12-28T13:51:13.150Z,53.55
2016-12-28T13:52:27.417Z,53.65
2016-12-28T13:53:42.198Z,53.94
2016-12-28T13:54:57.138Z,54.06
2016-12-28T13:56:11.922Z,53.94
2016-12-28T13:57:26.647Z,53.96
2016-12-28T13:58:41.674Z,53.87
2016-12-28T13:59:56.572Z,54.22
2016-12-28T14:01:12.652Z,54.22
2016-12-28T14:02:27.156Z,54.41
2016-12-28T14:03:41.862Z,54.79
2016-12-28T14:04:56.570Z,54.79
2016-12-28T14:06:10.989Z,54.79
2016-12-28T14:07:25.676Z,54.41
2016-12-28T14:08:40.954Z,53.75
2016-12-28T14:09:55.596Z,53.65
2016-12-28T14:11:09.802Z,53.46
2016-12-28T14:12:25.185Z,53.46
2016-12-28T14:13:39.841Z,53.75
2016-12-28T14:14:54.048Z,53.08
2016-12-28T14:16:08.550Z,53.36
2016-12-28T14:17:27.082Z,53.65
2016-12-28T14:18:56.228Z,53.75
2016-12-28T14:20:12.166Z,54.5
2016-12-28T14:21:27.236Z,54.79
2016-12-28T14:22:42.086Z,54.98
2016-12-28T14:23:56.768Z,56.03
2016-12-28T14:25:11.026Z,56.19
2016-12-28T14:26:26.339Z,56.1
2016-12-28T14:27:41.440Z,56
2016-12-28T14:28:56.283Z,56.19
2016-12-28T14:30:11.107Z,56.38
2016-12-28T14:31:26.323Z,56.1
2016-12-28T14:32:41.003Z,56
2016-12-28T14:33:56.026Z,55.9
2016-12-28T14:35:10.393Z,56.48
2016-12-28T14:36:24.566Z,56.76
2016-12-28T14:37:39.603Z,57.04
2016-12-28T14:38:54.285Z,56.67
2016-12-28T14:40:08.944Z,57.14
2016-12-28T14:41:23.226Z,56.57
2016-12-28T14:42:37.492Z,57.04
2016-12-28T14:43:52.219Z,57.24
2016-12-28T14:45:07.236Z,57.04
2016-12-28T14:46:21.342Z,57.04
2016-12-28T14:47:35.763Z,57.24
2016-12-28T14:48:50.207Z,56.38
2016-12-28T14:50:04.537Z,55.9
2016-12-28T14:51:19.251Z,55.9
2016-12-28T14:52:33.952Z,55.62
2016-12-28T14:53:48.336Z,55.71
2016-12-28T14:55:02.950Z,56.29
2016-12-28T14:56:17.429Z,56.19
2016-12-28T14:57:32.731Z,56.67
2016-12-28T14:58:47.323Z,56.57
2016-12-28T15:00:02.215Z,56.76
2016-12-28T15:01:17.001Z,57.04
2016-12-28T15:02:31.093Z,57.14
2016-12-28T15:03:46.674Z,56.85
2016-12-28T15:05:16.331Z,56.67
2016-12-28T15:06:30.456Z,56.67
2016-12-28T15:07:45.331Z,57.24
2016-12-28T15:09:00.740Z,56.29
2016-12-28T15:10:15.007Z,56.76
2016-12-28T15:11:30.484Z,56.67
2016-12-28T15:12:45.325Z,57.24
2016-12-28T15:14:00.096Z,57.04
2016-12-28T15:15:15.100Z,56.95
2016-12-28T15:16:30.415Z,56.19
2016-12-28T15:17:44.587Z,56.38
2016-12-28T15:18:59.031Z,56.57
2016-12-28T15:20:13.138Z,56.38
2016-12-28T15:21:29.032Z,56.57
2016-12-28T15:22:43.664Z,56.29
2016-12-28T15:23:58.027Z,56.76
2016-12-28T15:25:12.746Z,56.57
2016-12-28T15:26:27.711Z,57.04
2016-12-28T15:27:42.432Z,57.52
2016-12-28T15:28:57.993Z,58.18
2016-12-28T15:30:13.277Z,59.52
2016-12-28T15:31:28.369Z,60.28
2016-12-28T15:32:43.476Z,60.85
2016-12-28T15:33:58.559Z,61.32
2016-12-28T15:35:15.292Z,62.27
2016-12-28T15:36:29.972Z,61.71
2016-12-28T15:37:44.497Z,61.9
2016-12-28T15:38:59.583Z,62.46
2016-12-28T15:40:14.088Z,62.43
2016-12-28T15:41:29.211Z,64.08
2016-12-28T15:42:43.615Z,64.18
2016-12-28T15:43:58.105Z,63.13
2016-12-28T15:45:12.616Z,63.2
2016-12-28T15:46:27.448Z,63.29
2016-12-28T15:47:41.518Z,63.01
2016-12-28T15:48:55.760Z,63.29
2016-12-28T15:50:10.481Z,63.67
2016-12-28T15:51:25.887Z,63.57
2016-12-28T15:52:54.959Z,63.1
2016-12-28T15:54:09.102Z,62.91
2016-12-28T15:55:23.739Z,62.81
2016-12-28T15:56:38.165Z,62.91
2016-12-28T15:57:53.063Z,62.72
2016-12-28T15:59:07.593Z,62.24
2016-12-28T16:00:21.738Z,62.43
2016-12-28T16:01:36.563Z,63.1
2016-12-28T16:02:50.772Z,62.34
2016-12-28T16:04:05.435Z,62.53
2016-12-28T16:05:20.308Z,62.43
2016-12-28T16:06:35.123Z,62.34
2016-12-28T16:07:49.743Z,62.53
2016-12-28T16:09:05.007Z,62.27
2016-12-28T16:10:20.563Z,62.62
2016-12-28T16:11:35.413Z,62.43
2016-12-28T16:12:49.586Z,62.53
2016-12-28T16:14:03.663Z,62.72
2016-12-28T16:15:17.754Z,62.72
2016-12-28T16:16:32.597Z,62.53
2016-12-28T16:17:47.594Z,62.62
2016-12-28T16:19:02.838Z,62.81
2016-12-28T16:20:17.396Z,62.62